Aviation Digital Data Service (ADDS)

Output produced by METARs form (1329 UTC 31 July 2014)
found at http://www.aviationweather.gov/adds/metars/
 
KJST 311312Z AUTO 24006KT 6SM -RA BR SCT017 SCT070 OVC085 15/13 A3012 RMK AO2 RAB01 P0000 T01500133
KJST 311254Z AUTO 22004KT 10SM BKN016 OVC095 15/13 A3013 RMK AO2 SLP199 T01500128
KJST 311154Z AUTO 23006KT 9SM FEW012 BKN100 14/13 A3012 RMK AO2 SLP196 T01390128 10139 20122 53010
KJST 311054Z AUTO 22005KT 9SM CLR 13/12 A3011 RMK AO2 SLP190 T01280117
KJST 310954Z AUTO 21006KT 8SM CLR 13/12 A3010 RMK AO2 SLP186 T01280117
KJST 310901Z AUTO 20007KT 4SM BR SCT002 13/12 A3009 RMK AO2 T01280117
KJST 310854Z AUTO 21005KT 3SM BR BKN003 12/12 A3009 RMK AO2 SLP183 T01220117 55001
KJST 310840Z AUTO 23006KT 4SM BR BKN003 12/12 A3008 RMK AO2 T01220117
KJST 310819Z AUTO 22005KT 5SM BR SCT004 13/12 A3008 RMK AO2 T01280117
KJST 310754Z AUTO 21007KT 9SM CLR 13/12 A3008 RMK AO2 SLP179 T01330122
KJST 310654Z AUTO 21008KT 10SM CLR 13/12 A3009 RMK AO2 SLP182 T01330117
KJST 310554Z AUTO 20004KT 10SM CLR 13/12 A3009 RMK AO2 SLP184 60000 T01330117 10161 20133 58001
KJST 310454Z AUTO 20003KT 10SM FEW035 BKN065 BKN100 14/12 A3010 RMK AO2 SLP187 T01390122 402060089
KJST 310354Z AUTO 21004KT 10SM OVC085 14/12 A3010 RMK AO2 RAE05B40E49 SLP187 P0000 T01440122
KJST 310254Z AUTO 23005KT 10SM -RA FEW048 BKN080 BKN110 14/12 A3010 RMK AO2 RAB54 SLP187 P0000 60000 T01390122 50000
KJST 310154Z AUTO 21005KT 10SM FEW085 14/12 A3010 RMK AO2 LTG DSNT N AND NW SLP190 T01390122
KJST 310110Z AUTO 21009KT 10SM SCT029 OVC095 14/13 A3010 RMK AO2 LTG DSNT N AND NW T01440128
KJST 310054Z AUTO 21011KT 10SM BKN029 BKN046 OVC095 15/13 A3009 RMK AO2 RAB32E54 SLP188 P0000 T01500128
KJST 310050Z AUTO 22010KT 10SM -RA BKN029 OVC046 15/13 A3009 RMK AO2 RAB32 P0000
KJST 302354Z AUTO 20006KT 10SM FEW080 16/12 A3008 RMK AO2 LTG DSNT SW SLP181 60000 T01610122 10206 20161 51009
KJST 302254Z AUTO 24010KT 10SM SCT095 18/12 A3007 RMK AO2 LTG DSNT S SLP179 T01780122
KJST 302154Z AUTO 26009KT 10SM FEW035 BKN080 OVC095 19/12 A3006 RMK AO2 LTG DSNT N AND SW SLP176 T01890117
KJST 302054Z AUTO 22007KT 10SM FEW036 SCT055 BKN090 19/11 A3005 RMK AO2 LTG DSNT N AND NW SLP171 60000 T01940111 56009
KJST 301954Z AUTO 22009KT 10SM FEW030 19/12 A3005 RMK AO2 LTG DSNT NW RAE1859 SLP172 P0000 T01940117
KJST 301854Z AUTO 21009KT 10SM -RA SCT032 SCT049 BKN075 18/12 A3007 RMK AO2 RAB50 SLP178 P0000 T01830117
KJST 301754Z AUTO 24011KT 10SM SCT027 19/12 A3008 RMK AO2 SLP181 T01890122 10194 20122 58007
KJST 301654Z AUTO 25008KT 10SM FEW027 BKN050 18/12 A3009 RMK AO2 SLP186 T01830117
KJST 301554Z AUTO 24008G16KT 200V270 10SM FEW026 BKN035 BKN046 17/11 A3010 RMK AO2 SLP188 T01720111
KJST 301505Z AUTO 22008KT 10SM FEW002 FEW027 BKN045 16/11 A3010 RMK AO2 T01610106
KJST 301454Z AUTO 24006KT 10SM FEW032 OVC045 16/10 A3010 RMK AO2 SLP191 T01560100 51007
KJST 301354Z AUTO 22007KT 10SM BKN044 14/09 A3009 RMK AO2 SLP189 T01440094
KJST 301254Z AUTO 22006KT 10SM CLR 13/09 A3009 RMK AO2 SLP189 T01330094
KJST 301154Z AUTO 22005KT 10SM CLR 13/09 A3008 RMK AO2 SLP183 T01280089 10128 20089 51007
KJST 301054Z AUTO 24006KT 9SM CLR 09/08 A3008 RMK AO2 SLP186 T00940083
KJST 300954Z AUTO 22006KT 10SM CLR 10/08 A3007 RMK AO2 SLP182 T01000083
KJST 300854Z AUTO 23005KT 10SM CLR 09/08 A3006 RMK AO2 SLP178 T00940083 55001
KJST 300754Z AUTO 22006KT 10SM CLR 11/08 A3005 RMK AO2 SLP175 T01060083
KJST 300654Z AUTO 22005KT 10SM CLR 11/09 A3005 RMK AO2 SLP174 T01060089
KJST 300554Z AUTO 23005KT 10SM CLR 10/09 A3006 RMK AO2 SLP178 T01000089 10144 20100 55002
KJST 300454Z AUTO 24005KT 10SM CLR 11/08 A3006 RMK AO2 SLP177 T01060083 401670089
KJST 300354Z AUTO 23005KT 10SM CLR 12/09 A3006 RMK AO2 SLP179 T01220089
KJST 300254Z AUTO 20004KT 10SM CLR 12/09 A3006 RMK AO2 SLP181 T01220094 51007
KJST 300154Z AUTO 24003KT 10SM CLR 13/09 A3006 RMK AO2 SLP180 T01280094